CheckWX is a tool to help pilots better visualize weather data.  It is not intended as a substitute for an official pre-flight weather briefing.

08:49:40 UTC

KSWO METAR
Stillwater Regional Airport
Stillwater, Oklahoma, USA
Current

20 mins ago

KSWO 220830Z AUTO 10007KT 10SM OVC032 05/01 A3006 RMK AO2 T00500011
Observed
Feb-22 @ 08:30 UTC
Wind
  • 100° at 7 KTS
Visibility
10 SM
Flight Rules
VFR
Cloud Levels
  • Overcast at 3,200' AGL
Temperature
C / 41°F
Dewpoint
C / 34°F
Humidity
76%
Altimeter
30.06" Hg
Pressure
1017.92 hPa
Previous

50 mins ago

KSWO 220800Z AUTO 09007KT 10SM BKN029 05/01 A3007 RMK AO2 T00500011
Observed
Feb-22 @ 08:00 UTC
Wind
  • 090° at 7 KTS
Visibility
10 SM
Flight Rules
MVFR
Cloud Levels
  • Broken at 2,900' AGL
Temperature
C / 41°F
Dewpoint
C / 34°F
Humidity
76%
Altimeter
30.07" Hg
Pressure
1018.32 hPa
Previous

57 mins ago

KSWO 220753Z AUTO 10007KT 10SM BKN031 BKN047 05/01 A3007 RMK AO2 SLP182 T00500011
Observed
Feb-22 @ 07:53 UTC
Wind
  • 100° at 7 KTS
Visibility
10 SM
Flight Rules
VFR
Cloud Levels
  • Broken at 3,100' AGL
  • Broken at 4,700' AGL
Temperature
C / 41°F
Dewpoint
C / 34°F
Humidity
76%
Altimeter
30.07" Hg
Pressure
1018.2 hPa